createdAt,value
2018-06-28T00:00:10.832Z,76.30
2018-06-28T00:02:40.137Z,76.36
2018-06-28T00:05:09.603Z,77.15
2018-06-28T00:07:38.909Z,77.43
2018-06-28T00:10:08.284Z,77.21
2018-06-28T00:12:37.882Z,77.60
2018-06-28T00:15:07.332Z,77.71
2018-06-28T00:17:36.651Z,77.93
2018-06-28T00:20:06.132Z,77.85
2018-06-28T00:22:35.611Z,77.90
2018-06-28T00:25:04.974Z,78.34
2018-06-28T00:27:34.746Z,78.05
2018-06-28T00:30:04.584Z,78.00
2018-06-28T00:32:34.454Z,78.38
2018-06-28T00:35:04.082Z,78.81
2018-06-28T00:37:33.819Z,78.74
2018-06-28T00:40:03.443Z,78.97
2018-06-28T00:42:33.138Z,78.95
2018-06-28T00:45:02.952Z,79.03
2018-06-28T00:47:32.550Z,79.12
2018-06-28T00:50:02.542Z,79.75
2018-06-28T00:52:32.150Z,80.00
2018-06-28T00:55:01.968Z,80.00
2018-06-28T00:57:31.627Z,80.77
2018-06-28T01:00:01.280Z,80.63
2018-06-28T01:02:30.990Z,80.75
2018-06-28T01:05:00.453Z,81.13
2018-06-28T01:07:30.241Z,81.54
2018-06-28T01:09:59.618Z,81.53
2018-06-28T01:12:29.385Z,81.59
2018-06-28T01:14:58.931Z,81.60
2018-06-28T01:17:28.181Z,81.72
2018-06-28T01:19:57.533Z,81.78
2018-06-28T01:22:26.916Z,82.25
2018-06-28T01:24:56.879Z,82.47
2018-06-28T01:27:26.690Z,82.90
2018-06-28T01:29:55.952Z,82.59
2018-06-28T01:32:25.327Z,82.75
2018-06-28T01:34:54.689Z,82.69
2018-06-28T01:37:23.966Z,83.24
2018-06-28T01:39:53.198Z,83.08
2018-06-28T01:43:36.449Z,83.48
2018-06-28T01:46:05.872Z,83.94
2018-06-28T01:48:35.618Z,83.94
2018-06-28T01:51:05.534Z,84.36
2018-06-28T01:53:35.118Z,84.04
2018-06-28T01:56:04.597Z,84.53
2018-06-28T01:58:34.060Z,84.71
2018-06-28T02:01:03.606Z,84.38
2018-06-28T02:03:33.008Z,84.45
2018-06-28T02:06:02.724Z,84.42
2018-06-28T02:08:32.368Z,84.68
2018-06-28T02:11:01.683Z,84.65
2018-06-28T02:13:31.155Z,84.97
2018-06-28T02:16:00.525Z,85.06
2018-06-28T02:18:29.819Z,84.99
2018-06-28T02:20:59.274Z,84.79
2018-06-28T02:23:28.901Z,85.23
2018-06-28T02:25:58.201Z,84.82
2018-06-28T02:28:27.510Z,85.21
2018-06-28T02:30:56.766Z,85.22
2018-06-28T02:33:26.138Z,85.31
2018-06-28T02:35:55.368Z,85.31
2018-06-28T02:38:24.635Z,85.98
2018-06-28T02:40:54.024Z,85.53
2018-06-28T02:43:23.439Z,85.56
2018-06-28T02:45:52.798Z,86.13
2018-06-28T02:48:22.097Z,86.70
2018-06-28T02:50:51.506Z,86.74
2018-06-28T02:53:20.845Z,86.96
2018-06-28T02:55:50.171Z,87.08
2018-06-28T02:58:19.724Z,87.19
2018-06-28T03:00:49.047Z,87.14
2018-06-28T03:03:18.365Z,87.34
2018-06-28T03:05:47.698Z,87.54
2018-06-28T03:08:16.949Z,87.48
2018-06-28T03:10:46.224Z,87.55
2018-06-28T03:13:15.593Z,87.67
2018-06-28T03:15:44.899Z,87.94
2018-06-28T03:18:14.175Z,87.85
2018-06-28T03:20:43.498Z,88.55
2018-06-28T03:23:12.814Z,88.76
2018-06-28T03:25:42.170Z,88.90
2018-06-28T03:28:11.661Z,89.32
2018-06-28T03:30:41.189Z,89.15
2018-06-28T03:33:10.705Z,89.06
2018-06-28T03:35:40.189Z,88.60
2018-06-28T03:38:10.341Z,88.24
2018-06-28T03:40:39.769Z,88.13
2018-06-28T03:43:09.595Z,88.07
2018-06-28T03:45:38.920Z,88.18
2018-06-28T03:48:08.902Z,88.57
2018-06-28T03:50:38.663Z,88.42
2018-06-28T03:53:08.266Z,88.73
2018-06-28T03:55:38.079Z,88.63
2018-06-28T03:58:07.596Z,88.10
2018-06-28T04:00:36.976Z,87.58
2018-06-28T04:03:06.334Z,87.89
2018-06-28T04:05:35.783Z,87.83
2018-06-28T04:08:05.357Z,87.62
2018-06-28T04:10:35.036Z,87.96
2018-06-28T04:13:04.814Z,88.25
2018-06-28T04:15:34.191Z,88.44
2018-06-28T04:18:03.922Z,88.48
2018-06-28T04:20:33.789Z,87.94
2018-06-28T04:23:03.220Z,87.80
2018-06-28T04:25:33.187Z,87.77
2018-06-28T04:28:03.050Z,87.45
2018-06-28T04:30:32.554Z,87.57
2018-06-28T04:33:02.111Z,87.20
2018-06-28T04:35:31.585Z,86.99
2018-06-28T04:38:01.456Z,86.44
2018-06-28T04:40:31.982Z,86.23
2018-06-28T04:43:01.903Z,86.01
2018-06-28T04:45:31.389Z,85.82
2018-06-28T04:48:00.913Z,85.86
2018-06-28T04:50:30.395Z,86.58
2018-06-28T04:52:59.758Z,85.95
2018-06-28T04:55:29.070Z,86.25
2018-06-28T04:57:58.341Z,85.52
2018-06-28T05:00:27.622Z,85.63
2018-06-28T05:02:56.891Z,84.43
2018-06-28T05:05:26.225Z,84.40
2018-06-28T05:07:55.527Z,83.42
2018-06-28T05:10:24.850Z,82.92
2018-06-28T05:12:54.146Z,82.94
2018-06-28T05:15:23.477Z,81.18
2018-06-28T05:17:52.808Z,79.92
2018-06-28T05:20:22.253Z,78.83
2018-06-28T05:22:51.538Z,78.32
2018-06-28T05:25:21.444Z,77.59
2018-06-28T05:27:50.785Z,75.60
2018-06-28T05:30:20.194Z,74.43
2018-06-28T05:32:49.477Z,73.11
2018-06-28T05:35:18.789Z,72.04
2018-06-28T05:37:48.044Z,70.77
2018-06-28T05:40:17.508Z,70.09
2018-06-28T05:42:46.624Z,69.69
2018-06-28T05:45:15.849Z,68.97
2018-06-28T05:47:45.117Z,68.59
2018-06-28T05:50:14.646Z,68.74
2018-06-28T05:52:43.995Z,67.97
2018-06-28T05:55:13.309Z,68.44
2018-06-28T05:57:42.926Z,68.74
2018-06-28T06:00:12.227Z,68.43
2018-06-28T06:02:41.520Z,67.51
2018-06-28T06:05:10.727Z,67.46
2018-06-28T06:07:40.257Z,68.28
2018-06-28T06:10:09.738Z,67.77
2018-06-28T06:12:39.479Z,66.17
2018-06-28T06:15:08.835Z,66.09
2018-06-28T06:17:38.317Z,65.28
2018-06-28T06:20:08.473Z,66.06
2018-06-28T06:22:37.891Z,66.40
2018-06-28T06:25:07.403Z,64.85
2018-06-28T06:27:37.184Z,64.94
2018-06-28T06:30:07.676Z,64.07
2018-06-28T06:32:37.185Z,64.36
2018-06-28T06:35:06.717Z,64.73
2018-06-28T06:37:36.090Z,63.28
2018-06-28T06:40:05.512Z,64.10
2018-06-28T06:42:34.907Z,63.08
2018-06-28T06:45:04.872Z,63.12
2018-06-28T06:47:34.519Z,61.75
2018-06-28T06:50:04.523Z,62.04
2018-06-28T06:52:34.614Z,61.39
2018-06-28T06:55:04.120Z,62.36
2018-06-28T06:57:35.298Z,62.14
2018-06-28T07:00:05.559Z,62.00
2018-06-28T07:02:35.071Z,61.50
2018-06-28T07:05:08.881Z,59.84
2018-06-28T07:07:38.638Z,60.93
2018-06-28T07:10:12.815Z,58.03
2018-06-28T07:12:42.522Z,61.51
2018-06-28T07:15:12.491Z,61.87
2018-06-28T07:17:42.389Z,62.00
2018-06-28T07:20:12.270Z,62.90
2018-06-28T07:22:41.787Z,61.97
2018-06-28T07:25:10.987Z,60.82
2018-06-28T07:27:40.406Z,60.16
2018-06-28T07:30:11.100Z,61.00
2018-06-28T07:32:40.681Z,61.94
2018-06-28T07:35:11.534Z,63.96
2018-06-28T07:37:41.121Z,63.82
2018-06-28T07:40:10.809Z,64.03
2018-06-28T07:42:40.239Z,64.53
2018-06-28T07:45:09.511Z,64.20
2018-06-28T07:47:38.769Z,65.11
2018-06-28T07:50:08.145Z,64.08
2018-06-28T07:52:37.696Z,65.06
2018-06-28T07:55:07.089Z,64.41
2018-06-28T07:57:36.781Z,64.22
2018-06-28T08:00:07.393Z,62.92
2018-06-28T08:02:37.572Z,62.64
2018-06-28T08:05:07.201Z,63.26
2018-06-28T08:07:36.872Z,61.31
2018-06-28T08:10:06.365Z,61.25
2018-06-28T08:12:35.868Z,61.26
2018-06-28T08:15:05.980Z,60.63
2018-06-28T08:17:35.541Z,61.54
2018-06-28T08:20:06.224Z,60.24
2018-06-28T08:22:35.831Z,59.86
2018-06-28T08:25:05.851Z,60.60
2018-06-28T08:27:35.618Z,59.52
2018-06-28T08:30:05.818Z,59.59
2018-06-28T08:32:35.598Z,59.79
2018-06-28T08:35:05.669Z,57.97
2018-06-28T08:37:35.294Z,57.69
2018-06-28T08:40:05.291Z,58.02
2018-06-28T08:42:34.988Z,56.17
2018-06-28T08:45:04.914Z,57.92
2018-06-28T08:47:34.515Z,59.29
2018-06-28T08:50:04.027Z,57.60
2018-06-28T08:52:34.375Z,58.33
2018-06-28T08:55:03.981Z,59.63
2018-06-28T08:57:33.776Z,60.99
2018-06-28T09:00:03.361Z,60.00
2018-06-28T09:02:33.072Z,60.21
2018-06-28T09:05:02.489Z,59.07
2018-06-28T09:07:31.976Z,56.82
2018-06-28T09:10:01.607Z,57.73
2018-06-28T09:12:31.297Z,56.76
2018-06-28T09:15:00.819Z,56.93
2018-06-28T09:17:30.601Z,56.42
2018-06-28T09:20:00.426Z,56.53
2018-06-28T09:22:30.006Z,55.76
2018-06-28T09:24:59.453Z,54.11
2018-06-28T09:27:28.813Z,54.75
2018-06-28T09:29:58.241Z,55.49
2018-06-28T09:32:27.546Z,55.36
2018-06-28T09:34:56.934Z,55.46
2018-06-28T09:37:26.434Z,55.78
2018-06-28T09:39:55.729Z,54.84
2018-06-28T09:42:25.017Z,55.33
2018-06-28T09:44:54.478Z,53.83
2018-06-28T09:47:23.921Z,53.06
2018-06-28T09:49:53.209Z,51.42
2018-06-28T09:52:22.771Z,49.96
2018-06-28T09:54:52.107Z,50.34
2018-06-28T09:57:21.743Z,48.67
2018-06-28T09:59:51.248Z,47.90
2018-06-28T10:02:20.508Z,49.32
2018-06-28T10:04:49.830Z,47.71
2018-06-28T10:07:19.083Z,45.00
2018-06-28T10:09:48.469Z,40.88
2018-06-28T10:12:17.894Z,42.11
2018-06-28T10:14:47.383Z,43.53
2018-06-28T10:17:17.743Z,44.10
2018-06-28T10:19:47.207Z,44.50
2018-06-28T10:22:16.834Z,44.86
2018-06-28T10:24:46.345Z,44.42
2018-06-28T10:27:15.990Z,44.07
2018-06-28T10:29:45.419Z,44.65
2018-06-28T10:32:14.821Z,44.59
2018-06-28T10:34:44.435Z,41.86
2018-06-28T10:37:14.127Z,38.13
2018-06-28T10:39:43.447Z,37.09
2018-06-28T10:42:13.199Z,37.28
2018-06-28T10:44:42.840Z,37.57
2018-06-28T10:47:12.256Z,36.51
2018-06-28T10:49:41.803Z,39.44
2018-06-28T10:52:11.538Z,42.23
2018-06-28T10:54:41.054Z,43.56
2018-06-28T10:57:10.537Z,43.92
2018-06-28T10:59:40.028Z,44.27
2018-06-28T11:02:09.637Z,44.39
2018-06-28T11:04:39.417Z,41.31
2018-06-28T11:07:09.499Z,39.61
2018-06-28T11:09:38.985Z,39.00
2018-06-28T11:12:08.920Z,38.08
2018-06-28T11:14:38.496Z,38.25
2018-06-28T11:17:08.430Z,36.13
2018-06-28T11:19:38.125Z,35.83
2018-06-28T11:22:08.442Z,38.57
2018-06-28T11:24:38.210Z,41.08
2018-06-28T11:27:07.664Z,40.96
2018-06-28T11:29:37.156Z,42.61
2018-06-28T11:32:06.763Z,41.58
2018-06-28T11:34:36.292Z,41.45
2018-06-28T11:37:06.633Z,38.42
2018-06-28T11:39:36.355Z,39.36
2018-06-28T11:42:05.895Z,39.79
2018-06-28T11:44:35.744Z,37.65
2018-06-28T11:47:06.334Z,37.86
2018-06-28T11:49:36.233Z,37.18
2018-06-28T11:52:05.747Z,39.00
2018-06-28T11:54:35.295Z,39.91
2018-06-28T11:57:06.310Z,38.22
2018-06-28T11:59:36.044Z,40.11
2018-06-28T12:02:05.949Z,40.15
2018-06-28T12:04:35.862Z,39.24
2018-06-28T12:07:05.857Z,39.40
2018-06-28T12:09:35.403Z,39.14
2018-06-28T12:12:05.275Z,37.74
2018-06-28T12:14:34.905Z,37.25
2018-06-28T12:17:04.931Z,38.04
2018-06-28T12:19:34.840Z,35.40
2018-06-28T12:22:04.877Z,39.40
2018-06-28T12:24:34.565Z,39.33
2018-06-28T12:27:04.998Z,38.25
2018-06-28T12:29:34.913Z,35.46
2018-06-28T12:38:00.072Z,36.15
2018-06-28T12:40:29.575Z,34.52
2018-06-28T12:42:58.871Z,37.66
2018-06-28T12:45:28.575Z,37.04
2018-06-28T12:48:05.837Z,38.38
2018-06-28T12:50:35.415Z,37.92
2018-06-28T12:53:07.262Z,37.78
2018-06-28T12:56:47.940Z,35.75
2018-06-28T12:59:21.482Z,33.18
2018-06-28T13:01:51.542Z,33.40
2018-06-28T13:04:20.883Z,32.55
2018-06-28T13:06:50.120Z,31.51
2018-06-28T13:09:19.473Z,30.02
2018-06-28T13:11:48.930Z,29.47
2018-06-28T13:14:18.222Z,30.86
2018-06-28T13:16:47.693Z,32.15
2018-06-28T13:19:16.989Z,31.18
2018-06-28T13:21:46.818Z,34.75
2018-06-28T13:24:16.141Z,34.59
2018-06-28T13:26:45.441Z,31.44
2018-06-28T13:29:14.730Z,33.27
2018-06-28T13:31:44.011Z,35.24
2018-06-28T13:34:13.300Z,36.57
2018-06-28T13:36:42.777Z,34.20
2018-06-28T13:39:12.328Z,34.88
2018-06-28T13:41:42.389Z,35.46
2018-06-28T13:44:11.376Z,34.27
2018-06-28T13:46:41.100Z,32.29
2018-06-28T13:49:10.634Z,31.72
2018-06-28T13:51:40.018Z,30.66
2018-06-28T13:54:09.597Z,30.24
2018-06-28T13:56:39.029Z,30.89
2018-06-28T13:59:08.556Z,29.05
2018-06-28T14:01:38.911Z,29.60
2018-06-28T14:04:08.576Z,28.28
2018-06-28T14:06:38.057Z,29.47
2018-06-28T14:09:10.800Z,29.66
2018-06-28T14:11:40.142Z,30.92
2018-06-28T14:14:09.787Z,28.61
2018-06-28T14:16:39.455Z,27.27
2018-06-28T14:19:08.996Z,26.53
2018-06-28T14:21:38.999Z,28.66
2018-06-28T14:24:08.828Z,26.82
2018-06-28T14:26:38.493Z,26.83
2018-06-28T14:29:08.010Z,30.28
2018-06-28T14:31:37.735Z,29.34
2018-06-28T14:34:07.144Z,31.13
2018-06-28T14:36:36.854Z,30.63
2018-06-28T14:39:08.635Z,27.70
2018-06-28T14:41:38.249Z,27.80
2018-06-28T14:44:07.897Z,28.93
2018-06-28T14:46:37.608Z,27.19
2018-06-28T14:49:07.034Z,29.16
2018-06-28T14:51:36.612Z,30.66
2018-06-28T14:54:06.130Z,27.88
2018-06-28T14:56:35.572Z,25.77
2018-06-28T14:59:05.337Z,28.13
2018-06-28T15:01:35.691Z,29.26
2018-06-28T15:04:05.449Z,25.48
2018-06-28T15:09:26.308Z,25.34
2018-06-28T15:14:46.804Z,26.49
2018-06-28T15:17:16.164Z,24.42
2018-06-28T15:19:45.526Z,27.09
2018-06-28T15:22:15.038Z,28.45
2018-06-28T15:24:44.455Z,29.88
2018-06-28T15:27:13.866Z,29.42
2018-06-28T15:32:35.516Z,26.19
2018-06-28T15:35:05.368Z,27.01
2018-06-28T15:40:26.475Z,24.16
2018-06-28T15:42:55.699Z,25.15
2018-06-28T15:45:24.921Z,26.17
2018-06-28T15:51:09.640Z,27.16
2018-06-28T15:59:20.910Z,27.34
2018-06-28T16:01:50.334Z,26.54
2018-06-28T16:04:19.766Z,23.69
2018-06-28T16:06:49.925Z,24.25
2018-06-28T16:12:12.382Z,25.26
2018-06-28T16:14:41.776Z,27.19
2018-06-28T16:17:11.218Z,24.87
2018-06-28T16:19:41.354Z,25.81
2018-06-28T16:22:11.109Z,27.56
2018-06-28T16:24:40.633Z,27.47
2018-06-28T16:27:11.096Z,28.13
2018-06-28T16:29:40.487Z,28.17
2018-06-28T16:32:09.921Z,27.71
2018-06-28T16:34:40.372Z,26.65
2018-06-28T16:37:10.424Z,27.91
2018-06-28T16:39:40.153Z,27.60
2018-06-28T16:42:10.682Z,25.12
2018-06-28T16:44:45.039Z,23.87
2018-06-28T16:47:15.640Z,25.95
2018-06-28T16:49:45.181Z,27.18
2018-06-28T16:52:14.845Z,27.58
2018-06-28T16:54:45.064Z,25.64
2018-06-28T16:57:14.418Z,24.80
2018-06-28T16:59:43.926Z,25.92
2018-06-28T17:02:13.036Z,26.95
2018-06-28T17:04:42.320Z,28.32
2018-06-28T17:07:12.912Z,27.60
2018-06-28T17:09:43.087Z,27.12
2018-06-28T17:12:12.530Z,27.85
2018-06-28T17:14:41.952Z,26.01
2018-06-28T17:17:11.581Z,26.44
2018-06-28T17:19:40.934Z,27.53
2018-06-28T17:22:11.043Z,27.33
2018-06-28T17:24:40.640Z,28.63
2018-06-28T17:27:10.241Z,28.62
2018-06-28T17:29:39.506Z,28.43
2018-06-28T17:32:09.761Z,28.30
2018-06-28T17:34:39.480Z,28.47
2018-06-28T17:37:09.343Z,29.06
2018-06-28T17:39:39.171Z,30.39
2018-06-28T17:42:08.899Z,30.42
2018-06-28T17:44:38.556Z,31.95
2018-06-28T17:47:09.364Z,32.85
2018-06-28T17:49:38.918Z,33.56
2018-06-28T17:52:09.229Z,33.35
2018-06-28T17:54:39.566Z,32.88
2018-06-28T17:57:09.233Z,33.05
2018-06-28T17:59:38.766Z,32.62
2018-06-28T18:02:09.429Z,32.11
2018-06-28T18:04:39.072Z,32.84
2018-06-28T18:07:08.533Z,32.26
2018-06-28T18:09:38.079Z,31.77
2018-06-28T18:12:07.631Z,33.73
2018-06-28T18:14:37.706Z,33.91
2018-06-28T18:17:07.703Z,33.96
2018-06-28T18:19:37.473Z,34.25
2018-06-28T18:22:07.205Z,33.86
2018-06-28T18:24:37.551Z,31.87
2018-06-28T18:27:07.651Z,31.94
2018-06-28T18:29:37.488Z,32.34
2018-06-28T18:32:07.824Z,31.28
2018-06-28T18:34:37.392Z,31.57
2018-06-28T18:37:07.083Z,33.24
2018-06-28T18:39:37.946Z,32.38
2018-06-28T18:42:07.801Z,32.27
2018-06-28T18:44:37.400Z,33.09
2018-06-28T18:47:07.259Z,33.12
2018-06-28T18:49:36.957Z,32.17
2018-06-28T18:52:06.556Z,32.51
2018-06-28T18:54:37.072Z,33.00
2018-06-28T18:57:07.035Z,33.30
2018-06-28T18:59:36.655Z,33.57
2018-06-28T19:02:06.974Z,35.07
2018-06-28T19:04:37.963Z,35.56
2018-06-28T19:07:08.287Z,34.74
2018-06-28T19:11:51.029Z,35.52
2018-06-28T19:14:26.762Z,38.67
2018-06-28T19:16:57.617Z,39.35
2018-06-28T19:19:28.331Z,39.81
2018-06-28T19:22:06.429Z,40.96
2018-06-28T19:24:37.255Z,40.82
2018-06-28T19:27:07.940Z,41.38
2018-06-28T19:29:43.414Z,42.32
2018-06-28T19:32:18.413Z,42.44
2018-06-28T19:34:48.635Z,42.55
2018-06-28T19:37:24.973Z,41.94
2018-06-28T19:39:59.947Z,42.91
2018-06-28T19:42:35.658Z,42.53
2018-06-28T19:45:06.931Z,42.86
2018-06-28T19:47:38.104Z,43.14
2018-06-28T19:50:13.542Z,43.01
2018-06-28T19:52:48.609Z,43.22
2018-06-28T19:55:18.272Z,43.89
2018-06-28T19:57:47.959Z,44.58
2018-06-28T20:00:22.717Z,43.61
2018-06-28T20:02:57.227Z,45.04
2018-06-28T20:05:26.504Z,45.51
2018-06-28T20:07:55.733Z,44.68
2018-06-28T20:10:25.094Z,45.96
2018-06-28T20:13:01.662Z,45.87
2018-06-28T20:15:47.398Z,45.98
2018-06-28T20:18:22.136Z,45.91
2018-06-28T20:20:51.664Z,45.76
2018-06-28T20:23:21.956Z,46.75
2018-06-28T20:25:52.777Z,47.25
2018-06-28T20:28:27.328Z,46.11
2018-06-28T20:31:03.453Z,46.74
2018-06-28T20:33:38.572Z,46.91
2018-06-28T20:36:09.849Z,46.29
2018-06-28T20:38:39.668Z,46.27
2018-06-28T20:41:09.373Z,46.06
2018-06-28T20:43:39.284Z,47.09
2018-06-28T20:46:09.342Z,47.42
2018-06-28T20:48:39.137Z,47.63
2018-06-28T20:51:08.896Z,47.08
2018-06-28T20:53:38.231Z,47.57
2018-06-28T20:56:07.924Z,49.18
2018-06-28T20:58:38.135Z,50.82
2018-06-28T21:01:08.728Z,51.18
2018-06-28T21:03:38.569Z,51.50
2018-06-28T21:06:09.019Z,51.16
2018-06-28T21:08:39.022Z,51.47
2018-06-28T21:11:09.174Z,51.08
2018-06-28T21:13:39.545Z,51.19
2018-06-28T21:16:15.603Z,50.99
2018-06-28T21:18:44.931Z,50.77
2018-06-28T21:21:14.271Z,51.29
2018-06-28T21:23:43.536Z,52.25
2018-06-28T21:26:13.324Z,51.75
2018-06-28T21:28:42.748Z,52.29
2018-06-28T21:31:11.968Z,52.96
2018-06-28T21:33:41.577Z,53.25
2018-06-28T21:36:11.170Z,53.50
2018-06-28T21:38:40.973Z,53.59
2018-06-28T21:41:10.785Z,54.43
2018-06-28T21:43:40.305Z,54.82
2018-06-28T21:46:10.782Z,54.87
2018-06-28T21:48:40.422Z,55.06
2018-06-28T21:51:10.075Z,56.10
2018-06-28T21:53:39.496Z,56.15
2018-06-28T21:56:08.834Z,55.96
2018-06-28T21:58:38.373Z,55.38
2018-06-28T22:01:07.862Z,55.25
2018-06-28T22:03:39.104Z,55.32
2018-06-28T22:06:08.590Z,56.08
2018-06-28T22:08:37.997Z,57.25
2018-06-28T22:11:08.228Z,57.70
2018-06-28T22:13:37.576Z,58.15
2018-06-28T22:16:07.237Z,58.41
2018-06-28T22:18:36.839Z,59.03
2018-06-28T22:21:06.649Z,59.30
2018-06-28T22:23:35.962Z,59.45
2018-06-28T22:26:06.745Z,59.30
2018-06-28T22:28:36.332Z,58.71
2018-06-28T22:31:05.918Z,59.92
2018-06-28T22:33:35.735Z,60.60
2018-06-28T22:36:05.316Z,59.82
2018-06-28T22:38:34.989Z,60.45
2018-06-28T22:41:04.542Z,60.95
2018-06-28T22:43:34.192Z,61.19
2018-06-28T22:46:03.905Z,61.55
2018-06-28T22:48:33.293Z,61.42
2018-06-28T22:51:02.778Z,61.99
2018-06-28T22:53:32.530Z,62.60
2018-06-28T22:56:02.200Z,62.59
2018-06-28T22:58:32.247Z,62.61
2018-06-28T23:01:01.674Z,62.07
2018-06-28T23:03:31.614Z,62.18
2018-06-28T23:06:01.053Z,63.00
2018-06-28T23:08:30.387Z,63.22
2018-06-28T23:11:00.000Z,63.39
2018-06-28T23:13:30.918Z,63.94
2018-06-28T23:16:00.302Z,64.15
2018-06-28T23:18:29.493Z,63.29
2018-06-28T23:20:58.793Z,63.55
2018-06-28T23:23:28.064Z,63.68
2018-06-28T23:25:57.365Z,63.30
2018-06-28T23:28:26.770Z,63.78
2018-06-28T23:30:56.273Z,64.08
2018-06-28T23:33:25.642Z,63.99
2018-06-28T23:35:54.893Z,63.72
2018-06-28T23:38:24.201Z,63.69
2018-06-28T23:40:54.454Z,63.86
2018-06-28T23:43:24.045Z,64.35
2018-06-28T23:45:53.348Z,65.52
2018-06-28T23:48:22.609Z,65.31
2018-06-28T23:50:51.789Z,65.00
2018-06-28T23:53:21.349Z,65.32
2018-06-28T23:55:50.590Z,66.09
2018-06-28T23:58:19.969Z,65.78
